Wednesday, September 3, 2014, 2:57 AM EDT

KOKV, Winchester Regional

Location: Winchester, VA, United States Lat: 39.15
Local Time: 2:57 AM EDT ( 6:57 GMT) Lon: -78.15
Time Zone: US/Eastern Elev: 728 ft

Show me the last for .
Show Decoded

2014-09-03 02:35 METAR KOKV 030635Z AUTO 28003KT 10SM CLR 24/18 A2997 RMK AO2 =
2014-09-03 02:15 METAR KOKV 030615Z AUTO 27006KT 10SM CLR 25/18 A2997 RMK AO2 =
2014-09-03 01:55 METAR KOKV 030555Z AUTO 27004KT 10SM CLR 25/18 A2997 RMK AO2 LTG DSNT SE =
2014-09-03 01:35 METAR KOKV 030535Z AUTO 30003KT 10SM CLR 25/18 A2997 RMK AO2 =
2014-09-03 01:15 METAR KOKV 030515Z AUTO 33004KT 10SM CLR 25/18 A2996 RMK AO2 =
2014-09-03 00:55 METAR KOKV 030455Z AUTO 32003KT 10SM CLR 25/18 A2996 RMK AO2 =
2014-09-03 00:35 METAR KOKV 030435Z AUTO 28003KT 10SM CLR 25/18 A2996 RMK AO2 =
2014-09-03 00:15 METAR KOKV 030415Z AUTO 31007KT 10SM CLR 25/18 A2995 RMK AO2 =
2014-09-02 23:55 METAR KOKV 030355Z AUTO 30007KT 10SM SCT120 25/18 A2994 RMK AO2 =
2014-09-02 23:35 METAR KOKV 030335Z AUTO 26003KT 10SM SCT085 SCT120 26/20 A2995 RMK AO2 =
2014-09-02 23:15 METAR KOKV 030315Z AUTO 24004KT 10SM SCT085 BKN110 26/20 A2994 RMK AO2 LTG DSNT
                 SE AND SW =
2014-09-02 22:55 METAR KOKV 030255Z AUTO 23003KT 10SM RA SCT085 SCT120 25/21 A2994 RMK AO2 =
2014-09-02 22:35 METAR KOKV 030235Z AUTO 26003KT 10SM SCT090 SCT120 25/21 A2994 RMK AO2 =
2014-09-02 22:15 METAR KOKV 030215Z AUTO 19004KT 10SM SCT070 BKN100 OVC120 25/21 A2994 RMK AO2 =
2014-09-02 21:55 METAR KOKV 030155Z AUTO 00000KT 10SM OVC110 25/20 A2993 RMK AO2 =
2014-09-02 21:35 METAR KOKV 030135Z AUTO 00000KT 10SM BKN110 26/20 A2993 RMK AO2 =
2014-09-02 21:15 METAR KOKV 030115Z AUTO 24003KT 10SM CLR 27/19 A2992 RMK AO2 =
2014-09-02 20:55 METAR KOKV 030055Z AUTO 21005KT 10SM SCT110 25/21 A2992 RMK AO2 =
2014-09-02 20:35 METAR KOKV 030035Z AUTO 16003KT 10SM SCT120 26/21 A2992 RMK AO2 =
2014-09-02 20:15 METAR KOKV 030015Z AUTO 22003KT 10SM BKN120 25/20 A2992 RMK AO2 LTG DSNT SE =
2014-09-02 19:55 METAR KOKV 022355Z AUTO 19004KT 10SM SCT120 25/20 A2991 RMK AO2 LTG DSNT S =
2014-09-02 19:35 METAR KOKV 022335Z AUTO 18005KT 10SM CLR 25/19 A2991 RMK AO2 =
2014-09-02 19:15 METAR KOKV 022315Z AUTO 00000KT 10SM CLR 25/19 A2990 RMK AO2 LTG DSNT E =
2014-09-02 18:55 METAR KOKV 022255Z AUTO 10003KT 10SM SCT110 26/18 A2990 RMK AO2 =
2014-09-02 18:35 METAR KOKV 022235Z AUTO 08003KT 10SM OVC095 26/18 A2990 RMK AO2 LTG DSNT E AND
                 SE =
2014-09-02 18:15 METAR KOKV 022215Z AUTO 14011KT 10SM VCTS OVC095 27/18 A2991 RMK AO2 LTG DSNT NE
                 THRU SE =
2014-09-02 17:55 METAR KOKV 022155Z AUTO 03003KT 10SM OVC095 27/18 A2990 RMK AO2 LTG DSNT NE AND
                 SE =
2014-09-02 17:35 METAR KOKV 022135Z AUTO 03003KT 10SM SCT065 SCT095 BKN110 27/17 A2990 RMK AO2 =
2014-09-02 17:15 METAR KOKV 022115Z AUTO 00000KT 10SM SCT070 SCT085 28/17 A2989 RMK AO2 LTG DSNT
                 NE THRU S =
2014-09-02 16:55 METAR KOKV 022055Z AUTO 27005KT 10SM SCT055 SCT070 BKN085 28/17 A2988 RMK AO2
                 LTG DSNT NE AND E =
2014-09-02 16:35 METAR KOKV 022035Z AUTO 32009G12KT 10SM BKN070 OVC100 28/16 A2987 RMK AO2 LTG
                 DSNT NE =
2014-09-02 16:15 METAR KOKV 022015Z AUTO 21007KT 10SM SCT026 SCT070 BKN110 33/18 A2989 RMK AO2
                 LTG DSNT S =
2014-09-02 15:55 METAR KOKV 021955Z AUTO 22009G16KT 10SM SCT060 SCT070 33/17 A2989 RMK AO2 LTG
                 DSNT E =
2014-09-02 15:35 METAR KOKV 021935Z AUTO 20005KT 10SM SCT055 33/18 A2990 RMK AO2 LTG DSNT E AND
                 NW =
2014-09-02 15:15 METAR KOKV 021915Z AUTO 22010G15KT 10SM SCT065 33/20 A2991 RMK AO2 LTG DSNT E
                 AND NW =
2014-09-02 14:55 METAR KOKV 021855Z AUTO 24007KT 10SM SCT050 32/20 A2992 RMK AO2 LTG DSNT E =
2014-09-02 14:35 METAR KOKV 021835Z AUTO 27004KT 10SM SCT039 SCT050 SCT070 31/21 A2993 RMK AO2 =
2014-09-02 14:15 METAR KOKV 021815Z AUTO 21008KT 10SM BKN050 OVC065 31/19 A2994 RMK AO2 =
2014-09-02 13:55 METAR KOKV 021755Z AUTO 19004KT 10SM BKN050 BKN065 OVC100 32/20 A2994 RMK AO2 =
2014-09-02 13:15 METAR KOKV 021715Z AUTO 22010KT 180V250 10SM SCT050 SCT065 BKN090 32/20 A2995
                 RMK AO2 =
2014-09-02 12:55 METAR KOKV 021655Z AUTO 18003KT 10SM SCT048 SCT065 BKN085 31/19 A2996 RMK AO2 =
2014-09-02 12:35 METAR KOKV 021635Z AUTO 23005KT 10SM SCT050 SCT065 BKN085 31/20 A2997 RMK AO2 =
2014-09-02 12:15 METAR KOKV 021615Z AUTO 25003KT 10SM BKN050 BKN075 31/20 RMK AO2 =
2014-09-02 11:55 METAR KOKV 021555Z AUTO 19004KT 10SM BKN060 BKN070 30/19 A2999 RMK AO2 =
2014-09-02 11:35 METAR KOKV 021535Z AUTO 21006KT 10SM SCT065 30/20 A2999 RMK AO2 =
2014-09-02 11:15 METAR KOKV 021515Z AUTO 16006KT 10SM SCT050 BKN055 30/20 A2999 RMK AO2 =
2014-09-02 10:55 METAR KOKV 021455Z AUTO 18004KT 10SM BKN050 28/19 A3000 RMK AO2 =
2014-09-02 10:35 METAR KOKV 021435Z AUTO 18005KT 10SM SCT048 SCT050 29/20 A3000 RMK AO2 =
2014-09-02 10:15 METAR KOKV 021415Z AUTO 21006KT 10SM CLR 28/20 A3000 RMK AO2 =
2014-09-02 09:55 METAR KOKV 021355Z AUTO 22008KT 10SM CLR 28/20 A3000 RMK AO2 =
2014-09-02 09:35 METAR KOKV 021335Z AUTO 23006KT 10SM CLR 27/20 A3000 RMK AO2 =
2014-09-02 09:15 METAR KOKV 021315Z AUTO 22005KT 10SM CLR 27/19 A3000 RMK AO2 LTG DSNT NW =
2014-09-02 08:55 METAR KOKV 021255Z AUTO 22005KT 10SM CLR 26/20 A3000 RMK AO2 =
2014-09-02 08:35 METAR KOKV 021235Z AUTO 23005KT 10SM CLR 26/19 A3000 RMK AO2 =
2014-09-02 08:15 METAR KOKV 021215Z AUTO 21004KT 10SM CLR 25/18 A3000 RMK AO2 =
2014-09-02 07:55 METAR KOKV 021155Z AUTO 22005KT 10SM CLR 24/18 A3000 RMK AO2 =
2014-09-02 07:35 METAR KOKV 021135Z AUTO 22006KT 10SM CLR 23/18 A3000 RMK AO2 =
2014-09-02 07:15 METAR KOKV 021115Z AUTO 19006KT 10SM CLR 22/18 A3000 RMK AO2 =
2014-09-02 06:55 METAR KOKV 021055Z AUTO 19006KT 10SM SCT120 22/18 A2999 RMK AO2 =
2014-09-02 06:15 METAR KOKV 021015Z AUTO 20003KT 10SM SCT120 23/18 A2998 RMK AO2 =
2014-09-02 05:55 METAR KOKV 020955Z AUTO 22003KT 10SM SCT120 22/18 A2997 RMK AO2 =
2014-09-02 05:35 METAR KOKV 020935Z AUTO 21004KT 10SM SCT120 23/18 A2997 RMK AO2 =
2014-09-02 05:15 METAR KOKV 020915Z AUTO 22005KT 10SM SCT120 23/18 A2997 RMK AO2 =
2014-09-02 04:55 METAR KOKV 020855Z AUTO 23005KT 10SM CLR 24/17 A2997 RMK AO2 =
2014-09-02 04:35 METAR KOKV 020835Z AUTO 23006KT 10SM CLR 24/17 A2997 RMK AO2 =
2014-09-02 04:15 METAR KOKV 020815Z AUTO 24007KT 10SM SCT100 23/17 A2997 RMK AO2 =
2014-09-02 03:55 METAR KOKV 020755Z AUTO 25007KT 10SM SCT100 23/17 A2997 RMK AO2 =
2014-09-02 03:35 METAR KOKV 020735Z AUTO 24005KT 10SM CLR 23/17 A2997 RMK AO2 =
2014-09-02 03:15 METAR KOKV 020715Z AUTO 24006KT 10SM SCT100 23/17 A2998 RMK AO2 =

Support USWX by starting your Amazon purchase here.